Time;durP1;ratioP1;P1;durP2;ratioP2;P2;SDS_P1;SDS_P2;PMS_P1;PMS_P2;Temp;Humidity;BMP_temperature;BMP_pressure;BME280_temperature;BME280_humidity;BME280_pressure;Samples;Min_cycle;Max_cycle;Signal;HPM_P1;HPM_P2
2023/06/12 00:01:12;;;;;;;0.73;0.73;;;20.40;92.90;;;;;;5095074;28;20345;-71
2023/06/12 00:03:40;;;;;;;0.40;0.40;;;20.30;92.90;;;;;;5094906;28;20414;-71
2023/06/12 00:06:09;;;;;;;0.50;0.50;;;20.30;93.10;;;;;;5095216;28;20044;-71
2023/06/12 00:08:36;;;;;;;0.40;0.40;;;20.20;93.60;;;;;;5094974;28;20087;-70
2023/06/12 00:11:07;;;;;;;1.05;0.70;;;20.20;93.10;;;;;;5095009;28;20090;-70
2023/06/12 00:13:33;;;;;;;0.45;0.45;;;20.20;93.50;;;;;;5094788;28;20483;-70
2023/06/12 00:15:59;;;;;;;0.40;0.40;;;20.20;93.60;;;;;;5095218;28;20104;-70
2023/06/12 00:18:24;;;;;;;0.50;0.50;;;20.10;93.70;;;;;;5094781;28;20463;-70
2023/06/12 00:20:50;;;;;;;0.40;0.40;;;20.00;94.20;;;;;;5094756;28;20032;-71
2023/06/12 00:23:16;;;;;;;0.40;0.40;;;20.00;93.90;;;;;;5094736;28;20487;-71
2023/06/12 00:25:42;;;;;;;0.88;0.70;;;19.90;93.80;;;;;;5094694;28;20142;-71
2023/06/12 00:28:07;;;;;;;0.50;0.50;;;19.90;93.80;;;;;;5094614;28;20472;-71
2023/06/12 00:30:33;;;;;;;0.50;0.50;;;19.90;93.80;;;;;;5094572;28;20040;-70
2023/06/12 00:32:59;;;;;;;1.07;0.60;;;19.80;94.00;;;;;;5094517;28;20036;-70
2023/06/12 00:35:24;;;;;;;0.60;0.60;;;19.80;94.30;;;;;;5094349;28;20475;-70
2023/06/12 00:37:50;;;;;;;1.43;0.70;;;19.70;94.80;;;;;;5094419;28;20047;-71
2023/06/12 00:40:16;;;;;;;0.80;0.80;;;19.70;94.70;;;;;;5094530;28;20036;-70
2023/06/12 00:42:47;;;;;;;0.50;0.50;;;19.60;94.90;;;;;;5094381;28;20538;-71
2023/06/12 00:45:23;;;;;;;0.50;0.50;;;19.50;94.90;;;;;;5093358;28;20096;-70
2023/06/12 00:47:54;;;;;;;0.47;0.47;;;19.50;94.50;;;;;;5094170;28;20036;-70
2023/06/12 00:50:25;;;;;;;0.50;0.50;;;19.50;94.90;;;;;;5094259;28;20032;-71
2023/06/12 00:52:52;;;;;;;0.50;0.50;;;19.50;94.60;;;;;;5094227;28;20047;-70
2023/06/12 00:55:18;;;;;;;0.40;0.40;;;19.40;95.30;;;;;;5094072;28;20040;-70
2023/06/12 00:57:44;;;;;;;0.40;0.40;;;19.40;95.20;;;;;;5094117;28;20062;-69
2023/06/12 01:00:12;;;;;;;0.60;0.60;;;19.30;95.20;;;;;;5094066;28;20051;-70
2023/06/12 01:02:42;;;;;;;0.40;0.40;;;19.30;95.70;;;;;;5094077;28;20114;-70
2023/06/12 01:05:10;;;;;;;0.50;0.50;;;19.30;95.60;;;;;;5093888;28;20324;-70
2023/06/12 01:07:48;;;;;;;0.40;0.40;;;19.30;95.80;;;;;;5094026;28;20035;-71
2023/06/12 01:10:25;;;;;;;0.45;0.45;;;19.20;95.90;;;;;;5094038;28;20040;-71
2023/06/12 01:12:52;;;;;;;0.50;0.50;;;19.20;95.90;;;;;;5094273;28;20108;-70
2023/06/12 01:15:17;;;;;;;0.50;0.50;;;19.00;96.10;;;;;;5093847;28;20040;-70
2023/06/12 01:17:43;;;;;;;0.40;0.40;;;19.00;96.10;;;;;;5093900;28;20058;-70
2023/06/12 01:20:11;;;;;;;0.40;0.40;;;19.00;96.70;;;;;;5093792;28;20146;-70
2023/06/12 01:22:46;;;;;;;0.55;0.55;;;18.90;96.90;;;;;;5093664;28;20476;-70
2023/06/12 01:25:35;;;;;;;0.50;0.50;;;18.80;97.00;;;;;;5093807;28;20089;-70
2023/06/12 01:28:37;;;;;;;0.40;0.40;;;18.80;97.00;;;;;;5093814;28;20043;-70
2023/06/12 01:31:25;;;;;;;0.60;0.60;;;18.80;97.40;;;;;;5093625;28;20062;-71
2023/06/12 01:34:07;;;;;;;0.40;0.40;;;18.60;98.30;;;;;;5094096;28;20118;-70
2023/06/12 01:36:37;;;;;;;0.40;0.40;;;18.60;98.30;;;;;;5093859;28;20425;-70
2023/06/12 01:39:05;;;;;;;0.40;0.40;;;18.60;98.20;;;;;;5093648;28;20094;-70
2023/06/12 01:41:33;;;;;;;0.40;0.40;;;18.60;98.40;;;;;;5093666;28;20047;-71
2023/06/12 01:44:09;;;;;;;0.50;0.50;;;18.60;98.20;;;;;;5109491;28;20035;-70
2023/06/12 01:46:38;;;;;;;0.50;0.50;;;18.50;98.80;;;;;;5092355;28;20468;-71
2023/06/12 01:49:06;;;;;;;0.40;0.40;;;18.40;99.10;;;;;;5093679;28;20044;-70
2023/06/12 01:51:32;;;;;;;0.68;0.68;;;18.40;99.10;;;;;;5093661;28;20051;-70
2023/06/12 01:53:57;;;;;;;0.40;0.40;;;18.40;99.00;;;;;;5093587;28;20051;-71
2023/06/12 01:56:27;;;;;;;0.30;0.30;;;18.40;99.50;;;;;;5095207;28;20040;-70
2023/06/12 01:58:53;;;;;;;0.50;0.50;;;18.40;99.90;;;;;;5097934;28;20100;-70
2023/06/12 02:01:19;;;;;;;0.30;0.30;;;18.30;99.90;;;;;;5096659;28;20387;-70
2023/06/12 02:03:48;;;;;;;0.40;0.40;;;18.20;99.90;;;;;;5097260;28;20067;-70
2023/06/12 02:06:17;;;;;;;0.40;0.40;;;18.30;99.90;;;;;;5097536;28;20043;-70
2023/06/12 02:08:44;;;;;;;0.47;0.47;;;18.30;99.50;;;;;;5097090;28;20123;-70
2023/06/12 02:11:10;;;;;;;0.30;0.30;;;18.20;99.90;;;;;;5097445;28;20131;-71
2023/06/12 02:13:36;;;;;;;0.30;0.30;;;18.20;99.90;;;;;;5097265;28;20032;-70
2023/06/12 02:16:05;;;;;;;0.30;0.30;;;18.20;99.90;;;;;;5097117;28;20294;-71
2023/06/12 02:18:31;;;;;;;0.30;0.30;;;18.20;99.90;;;;;;5097208;28;20028;-70
2023/06/12 02:20:57;;;;;;;0.30;0.30;;;18.10;99.90;;;;;;5097002;28;20046;-70
2023/06/12 02:23:22;;;;;;;0.50;0.50;;;18.10;99.90;;;;;;5097057;28;20094;-71
2023/06/12 02:25:48;;;;;;;0.30;0.30;;;18.00;99.90;;;;;;5096729;28;20047;-71
2023/06/12 02:28:13;;;;;;;0.30;0.30;;;18.00;99.90;;;;;;5096997;28;20043;-70
2023/06/12 02:30:39;;;;;;;0.40;0.40;;;18.00;99.90;;;;;;5097012;28;20126;-71
2023/06/12 02:33:09;;;;;;;0.30;0.30;;;18.00;99.90;;;;;;5096926;28;20472;-71
2023/06/12 02:35:36;;;;;;;0.30;0.30;;;18.00;99.90;;;;;;5096613;28;20085;-71
2023/06/12 02:38:01;;;;;;;0.38;0.38;;;18.00;99.90;;;;;;5095875;28;20487;-70
2023/06/12 02:40:27;;;;;;;0.40;0.40;;;17.90;99.90;;;;;;5097226;28;20044;-69
2023/06/12 02:42:52;;;;;;;0.50;0.50;;;17.90;99.90;;;;;;5096740;28;20130;-70
2023/06/12 02:45:21;;;;;;;0.50;0.50;;;18.00;99.90;;;;;;5096530;28;20043;-70
2023/06/12 02:47:47;;;;;;;0.30;0.30;;;17.90;99.90;;;;;;5096680;28;20411;-70
2023/06/12 02:50:12;;;;;;;0.40;0.40;;;17.80;99.90;;;;;;5095402;28;20097;-69
2023/06/12 02:52:40;;;;;;;0.30;0.30;;;17.80;99.90;;;;;;5096238;28;20062;-70
2023/06/12 02:55:06;;;;;;;0.40;0.40;;;17.70;99.90;;;;;;5096425;28;20086;-70
2023/06/12 02:57:32;;;;;;;;;;;17.70;99.90;;;;;;5096671;28;20040;-70
2023/06/12 02:59:58;;;;;;;0.30;0.30;;;17.70;99.90;;;;;;5096376;28;19962;-70
2023/06/12 03:02:23;;;;;;;0.30;0.30;;;17.60;99.90;;;;;;5096303;28;20063;-70
2023/06/12 03:04:52;;;;;;;0.27;0.27;;;17.60;99.90;;;;;;5096313;28;20459;-70
2023/06/12 03:07:18;;;;;;;0.30;0.30;;;17.50;99.90;;;;;;5095937;28;20376;-70
2023/06/12 03:09:45;;;;;;;0.30;0.30;;;17.50;99.90;;;;;;5096017;28;20044;-70
2023/06/12 03:12:11;;;;;;;0.40;0.40;;;17.40;99.90;;;;;;5096060;28;20096;-70
2023/06/12 03:14:38;;;;;;;0.90;0.50;;;17.70;99.90;;;;;;5096130;28;20123;-70
2023/06/12 03:17:04;;;;;;;0.50;0.50;;;17.40;99.90;;;;;;5096010;28;20047;-70
2023/06/12 03:19:30;;;;;;;0.30;0.30;;;17.40;99.90;;;;;;5095928;28;20028;-70
2023/06/12 03:21:56;;;;;;;5.00;0.98;;;17.40;99.90;;;;;;5096352;28;20097;-70
2023/06/12 03:24:24;;;;;;;0.30;0.30;;;17.40;99.90;;;;;;5095897;28;20418;-70
2023/06/12 03:26:49;;;;;;;0.40;0.40;;;17.70;99.90;;;;;;5095821;28;20469;-70
2023/06/12 03:29:15;;;;;;;0.40;0.40;;;17.50;99.90;;;;;;5095807;28;20039;-70
2023/06/12 03:31:41;;;;;;;0.30;0.30;;;17.30;99.90;;;;;;5095810;28;20353;-70
2023/06/12 03:34:07;;;;;;;0.70;0.70;;;17.30;99.90;;;;;;5095665;28;20043;-70
2023/06/12 03:36:33;;;;;;;0.50;0.50;;;17.30;99.90;;;;;;5095508;28;20082;-70
2023/06/12 03:39:00;;;;;;;;;;;17.30;99.90;;;;;;5096065;28;20040;-70
2023/06/12 03:41:27;;;;;;;0.30;0.30;;;17.20;99.90;;;;;;5095619;28;19916;-70
2023/06/12 03:43:52;;;;;;;0.30;0.30;;;17.30;99.90;;;;;;5095549;28;20048;-70
2023/06/12 03:46:18;;;;;;;0.30;0.30;;;17.30;99.90;;;;;;5095660;28;20093;-70
2023/06/12 03:48:43;;;;;;;0.40;0.40;;;17.30;99.90;;;;;;5095412;28;20043;-70
2023/06/12 03:51:09;;;;;;;0.50;0.50;;;17.30;99.90;;;;;;5095431;28;20375;-70
2023/06/12 03:53:35;;;;;;;0.30;0.30;;;17.20;99.90;;;;;;5094486;28;20048;-70
2023/06/12 03:56:01;;;;;;;0.40;0.40;;;17.20;99.90;;;;;;5095256;28;20039;-70
2023/06/12 03:58:27;;;;;;;0.30;0.30;;;17.30;99.90;;;;;;5095326;28;20760;-71
2023/06/12 04:00:53;;;;;;;0.50;0.50;;;17.30;99.90;;;;;;5095246;28;20090;-71
2023/06/12 04:03:21;;;;;;;0.30;0.30;;;17.30;99.90;;;;;;5095182;28;20051;-70
2023/06/12 04:05:50;;;;;;;0.30;0.30;;;17.30;99.90;;;;;;5095396;28;20169;-70
2023/06/12 04:08:15;;;;;;;0.40;0.40;;;17.30;99.90;;;;;;5095015;28;20040;-70
2023/06/12 04:10:41;;;;;;;0.40;0.40;;;17.30;99.90;;;;;;5095318;28;20032;-70
2023/06/12 04:13:07;;;;;;;0.30;0.30;;;17.50;99.90;;;;;;5094962;28;20040;-70
2023/06/12 04:15:33;;;;;;;0.40;0.40;;;17.30;99.90;;;;;;5094804;28;20173;-70
2023/06/12 04:17:58;;;;;;;0.40;0.40;;;17.30;99.90;;;;;;5094768;28;20116;-71
2023/06/12 04:20:26;;;;;;;0.40;0.40;;;17.30;99.90;;;;;;5094680;28;20047;-70
2023/06/12 04:22:52;;;;;;;0.45;0.45;;;17.30;99.90;;;;;;5095136;28;20036;-69
2023/06/12 04:25:18;;;;;;;0.60;0.60;;;17.30;99.90;;;;;;5094994;28;20104;-70
2023/06/12 04:27:44;;;;;;;0.35;0.35;;;17.30;99.90;;;;;;5094648;28;20040;-71
2023/06/12 04:30:10;;;;;;;0.60;0.60;;;17.30;99.90;;;;;;5094572;28;20130;-70
2023/06/12 04:32:37;;;;;;;0.30;0.30;;;17.30;99.90;;;;;;5093442;28;20051;-70
2023/06/12 04:35:05;;;;;;;0.32;0.32;;;17.30;99.90;;;;;;5093864;28;20349;-70
2023/06/12 04:37:30;;;;;;;0.60;0.60;;;17.30;99.90;;;;;;5094381;28;20040;-70
2023/06/12 04:39:57;;;;;;;0.40;0.40;;;17.40;99.90;;;;;;5094450;28;20101;-70
2023/06/12 04:42:23;;;;;;;0.50;0.50;;;17.40;99.90;;;;;;5094196;28;20480;-70
2023/06/12 04:44:48;;;;;;;0.40;0.40;;;17.40;99.90;;;;;;5093334;28;20105;-70
2023/06/12 04:47:17;;;;;;;0.40;0.40;;;17.40;99.90;;;;;;5093349;28;20062;-70
2023/06/12 04:49:46;;;;;;;0.30;0.30;;;17.40;99.90;;;;;;5094232;28;20055;-71
2023/06/12 04:52:18;;;;;;;0.40;0.40;;;17.50;99.90;;;;;;5094184;28;20047;-70
2023/06/12 04:54:45;;;;;;;0.30;0.30;;;17.60;99.90;;;;;;5094475;28;20128;-70
2023/06/12 04:57:16;;;;;;;0.98;0.93;;;17.50;99.90;;;;;;5094099;28;20495;-70
2023/06/12 04:59:45;;;;;;;0.30;0.30;;;17.40;99.90;;;;;;5093941;28;20047;-69
2023/06/12 05:02:11;;;;;;;0.30;0.30;;;17.40;99.90;;;;;;5093962;28;20051;-71
2023/06/12 05:04:38;;;;;;;0.30;0.30;;;17.40;99.90;;;;;;5094005;28;20056;-70
2023/06/12 05:07:16;;;;;;;0.35;0.35;;;17.40;99.90;;;;;;5094343;28;20083;-70
2023/06/12 05:09:46;;;;;;;0.30;0.30;;;17.40;99.90;;;;;;5093747;28;20035;-70
2023/06/12 05:12:12;;;;;;;0.50;0.50;;;17.40;99.90;;;;;;5094027;28;20048;-70
2023/06/12 05:14:39;;;;;;;0.40;0.40;;;17.50;99.90;;;;;;5093745;28;20040;-70
2023/06/12 05:17:05;;;;;;;0.40;0.40;;;17.50;99.90;;;;;;5093867;28;20040;-71
2023/06/12 05:19:30;;;;;;;0.40;0.40;;;17.50;99.90;;;;;;5093748;28;20036;-70
2023/06/12 05:21:56;;;;;;;0.40;0.40;;;17.60;99.90;;;;;;5093745;28;20036;-70
2023/06/12 05:24:22;;;;;;;0.30;0.30;;;17.70;99.90;;;;;;5093867;28;20473;-70
2023/06/12 05:26:47;;;;;;;0.30;0.30;;;18.00;99.90;;;;;;5093797;28;20032;-70
2023/06/12 05:29:13;;;;;;;0.50;0.50;;;18.40;99.90;;;;;;5093860;28;20036;-70
2023/06/12 05:31:38;;;;;;;0.60;0.60;;;18.60;99.90;;;;;;5093194;28;20047;-70
2023/06/12 05:34:04;;;;;;;0.40;0.40;;;19.00;99.90;;;;;;5094125;28;20048;-70
2023/06/12 05:36:30;;;;;;;0.30;0.30;;;19.40;99.90;;;;;;5092690;28;20050;-70
2023/06/12 05:38:56;;;;;;;0.40;0.40;;;19.60;99.90;;;;;;5093710;28;20051;-70
2023/06/12 05:41:22;;;;;;;0.30;0.30;;;20.00;99.90;;;;;;5093791;28;20040;-71
2023/06/12 05:43:47;;;;;;;0.47;0.47;;;20.30;99.90;;;;;;5093665;28;20028;-70
2023/06/12 05:46:13;;;;;;;0.30;0.30;;;20.60;99.90;;;;;;5092735;28;20122;-70
2023/06/12 05:48:39;;;;;;;0.40;0.40;;;20.90;99.90;;;;;;5094113;28;20040;-70
2023/06/12 05:51:07;;;;;;;0.40;0.40;;;21.20;99.90;;;;;;5093735;28;20086;-71
2023/06/12 05:53:33;;;;;;;0.45;0.45;;;21.40;99.90;;;;;;5092474;28;20483;-70
2023/06/12 05:55:59;;;;;;;0.93;0.93;;;21.50;99.90;;;;;;5093715;28;20134;-70
2023/06/12 05:58:25;;;;;;;0.75;0.60;;;21.70;99.90;;;;;;5093652;28;20051;-71
2023/06/12 06:00:52;;;;;;;1.73;1.23;;;21.80;99.90;;;;;;5093615;28;20113;-70
2023/06/12 06:03:19;;;;;;;0.40;0.40;;;22.00;99.90;;;;;;5093285;28;20476;-70
2023/06/12 06:05:46;;;;;;;0.30;0.30;;;22.40;99.90;;;;;;5093264;28;20109;-71
2023/06/12 06:08:12;;;;;;;0.30;0.30;;;22.50;99.90;;;;;;5093517;28;20089;-70
2023/06/12 06:10:38;;;;;;;0.20;0.20;;;22.60;99.90;;;;;;5093390;28;20033;-71
2023/06/12 06:13:04;;;;;;;0.30;0.30;;;22.70;99.90;;;;;;5093939;28;20085;-71
2023/06/12 06:15:29;;;;;;;0.30;0.30;;;22.80;99.40;;;;;;5093791;28;20040;-70
2023/06/12 06:17:56;;;;;;;0.40;0.40;;;22.90;99.10;;;;;;5093388;28;20380;-70
2023/06/12 06:20:21;;;;;;;0.30;0.30;;;23.00;99.50;;;;;;5093260;28;20445;-70
2023/06/12 06:22:47;;;;;;;0.40;0.40;;;23.10;98.80;;;;;;5093577;28;20071;-71
2023/06/12 06:25:13;;;;;;;0.30;0.30;;;23.10;98.40;;;;;;5093267;28;20044;-70
2023/06/12 06:27:38;;;;;;;0.40;0.40;;;22.80;98.30;;;;;;5093208;28;20040;-71
2023/06/12 06:30:05;;;;;;;0.40;0.40;;;22.90;98.50;;;;;;5093725;28;20420;-71
2023/06/12 06:32:31;;;;;;;0.35;0.35;;;23.00;98.60;;;;;;5093289;28;20051;-70
2023/06/12 06:34:56;;;;;;;0.50;0.50;;;23.10;98.80;;;;;;5093164;28;20472;-71
2023/06/12 06:37:22;;;;;;;0.30;0.30;;;23.30;98.60;;;;;;5093053;28;20274;-72
2023/06/12 06:39:48;;;;;;;0.30;0.30;;;23.30;98.70;;;;;;5093245;28;20376;-71
2023/06/12 06:42:13;;;;;;;0.40;0.40;;;23.40;98.20;;;;;;5092986;28;20040;-71
2023/06/12 06:44:39;;;;;;;0.60;0.60;;;23.30;97.90;;;;;;5096639;28;20083;-70
2023/06/12 06:47:07;;;;;;;0.67;0.60;;;23.30;97.50;;;;;;5097199;28;20051;-70
2023/06/12 06:49:33;;;;;;;0.30;0.30;;;23.30;97.90;;;;;;5096652;28;20039;-71
2023/06/12 06:51:58;;;;;;;0.37;0.37;;;23.40;97.50;;;;;;5096699;28;20036;-70
2023/06/12 06:54:24;;;;;;;0.50;0.50;;;23.50;98.00;;;;;;5095370;28;20071;-71
2023/06/12 06:56:50;;;;;;;0.30;0.30;;;23.60;96.60;;;;;;5094939;28;20051;-70
2023/06/12 06:59:16;;;;;;;0.55;0.55;;;23.70;97.00;;;;;;5095282;28;20127;-71
2023/06/12 07:01:42;;;;;;;0.40;0.40;;;23.70;97.20;;;;;;5096166;28;20551;-71
2023/06/12 07:04:07;;;;;;;0.40;0.40;;;23.80;97.30;;;;;;5096615;28;20119;-71
2023/06/12 07:06:33;;;;;;;0.40;0.40;;;23.70;97.20;;;;;;5096693;28;20050;-71
2023/06/12 07:09:00;;;;;;;0.40;0.30;;;23.90;97.00;;;;;;5096339;28;20055;-71
2023/06/12 07:11:26;;;;;;;0.30;0.30;;;24.00;97.30;;;;;;5096279;28;20042;-71
2023/06/12 07:13:52;;;;;;;0.40;0.40;;;24.00;96.80;;;;;;5095924;28;20510;-71
2023/06/12 07:16:19;;;;;;;0.30;0.30;;;24.00;97.20;;;;;;5096586;28;20036;-71
2023/06/12 07:18:44;;;;;;;0.40;0.40;;;24.10;97.10;;;;;;5096173;28;20048;-71
2023/06/12 07:21:10;;;;;;;1.10;0.97;;;24.30;96.40;;;;;;5095143;28;20170;-71
2023/06/12 07:23:36;;;;;;;0.30;0.30;;;24.40;96.40;;;;;;5096209;28;20368;-71
2023/06/12 07:26:02;;;;;;;0.30;0.30;;;24.40;96.10;;;;;;5096107;28;20126;-70
2023/06/12 07:28:28;;;;;;;0.30;0.30;;;24.60;96.00;;;;;;5095934;28;20048;-70
2023/06/12 07:30:54;;;;;;;0.30;0.30;;;24.70;95.70;;;;;;5096303;28;20036;-70
2023/06/12 07:33:19;;;;;;;0.32;0.32;;;24.80;95.70;;;;;;5095880;28;20123;-71
2023/06/12 07:35:45;;;;;;;0.30;0.30;;;24.90;96.10;;;;;;5095788;28;20119;-70
2023/06/12 07:38:12;;;;;;;0.30;0.30;;;25.10;95.50;;;;;;5095924;28;20036;-71
2023/06/12 07:40:38;;;;;;;0.30;0.30;;;25.10;95.00;;;;;;5095686;28;20376;-71
2023/06/12 07:43:04;;;;;;;0.75;0.65;;;25.10;95.80;;;;;;5095636;28;20040;-70
2023/06/12 07:45:30;;;;;;;0.35;0.35;;;25.30;95.80;;;;;;5095621;28;20051;-70
2023/06/12 07:47:57;;;;;;;0.50;0.50;;;25.30;95.10;;;;;;5095994;28;20492;-70
2023/06/12 07:50:23;;;;;;;0.30;0.30;;;25.40;95.20;;;;;;5095530;28;20039;-71
2023/06/12 07:52:49;;;;;;;5.32;1.25;;;25.50;95.10;;;;;;5095483;28;20075;-72
2023/06/12 07:55:16;;;;;;;0.30;0.30;;;25.60;95.40;;;;;;5093861;28;20079;-71
2023/06/12 07:57:41;;;;;;;;;;;25.60;95.00;;;;;;5095726;28;20051;-72
2023/06/12 08:00:08;;;;;;;0.45;0.45;;;25.60;95.10;;;;;;5095876;28;19916;-70
2023/06/12 08:02:35;;;;;;;0.30;0.30;;;25.70;95.40;;;;;;5095271;28;20028;-71
2023/06/12 08:05:03;;;;;;;0.40;0.40;;;25.90;95.30;;;;;;5095378;28;20093;-72
2023/06/12 08:07:30;;;;;;;0.30;0.30;;;26.00;95.00;;;;;;5095160;28;20047;-71
2023/06/12 08:09:56;;;;;;;0.40;0.40;;;26.10;95.00;;;;;;5095153;28;20040;-71
2023/06/12 08:12:22;;;;;;;0.40;0.40;;;26.30;94.60;;;;;;5095099;28;20056;-71
2023/06/12 08:14:49;;;;;;;0.82;0.82;;;26.20;94.80;;;;;;5094993;28;20119;-71
2023/06/12 08:17:15;;;;;;;0.30;0.30;;;26.30;94.00;;;;;;5095034;28;20036;-71
2023/06/12 08:19:41;;;;;;;0.30;0.30;;;26.30;94.30;;;;;;5095218;28;20035;-71
2023/06/12 08:22:07;;;;;;;1.13;0.70;;;26.30;93.30;;;;;;5094845;28;20039;-71
2023/06/12 08:24:35;;;;;;;0.38;0.38;;;26.40;94.30;;;;;;5094767;28;20387;-71
2023/06/12 08:27:02;;;;;;;0.40;0.40;;;26.60;94.10;;;;;;5094752;28;20124;-70
2023/06/12 08:29:28;;;;;;;1.10;0.85;;;26.80;93.20;;;;;;5094670;28;20132;-71
2023/06/12 08:31:55;;;;;;;0.80;0.70;;;27.00;92.60;;;;;;5094314;28;20460;-71
2023/06/12 08:34:24;;;;;;;;;;;27.10;92.80;;;;;;5095067;28;20047;-71
2023/06/12 08:36:51;;;;;;;0.40;0.40;;;27.20;92.70;;;;;;5094619;28;19916;-71
2023/06/12 08:39:16;;;;;;;0.30;0.30;;;27.40;92.70;;;;;;5094590;28;20040;-70
2023/06/12 08:41:53;;;;;;;0.50;0.40;;;27.50;91.70;;;;;;5094232;28;20380;-71
2023/06/12 08:44:22;;;;;;;0.40;0.40;;;27.60;92.60;;;;;;5094189;28;20046;-71
2023/06/12 08:46:53;;;;;;;0.73;0.70;;;27.70;91.50;;;;;;5094432;28;20040;-72
2023/06/12 08:49:19;;;;;;;1.05;0.60;;;27.80;92.10;;;;;;5094627;28;20202;-71
2023/06/12 08:51:45;;;;;;;0.80;0.80;;;27.90;91.90;;;;;;5094395;28;20531;-72
2023/06/12 08:54:11;;;;;;;0.55;0.55;;;27.80;90.70;;;;;;5094286;28;20089;-71
2023/06/12 08:56:41;;;;;;;0.40;0.40;;;28.00;91.20;;;;;;5094256;28;20349;-71
2023/06/12 08:59:06;;;;;;;0.30;0.30;;;28.20;91.30;;;;;;5093950;28;20479;-72
2023/06/12 09:01:33;;;;;;;0.30;0.30;;;28.30;92.10;;;;;;5094461;28;20108;-71
2023/06/12 09:04:03;;;;;;;0.73;0.73;;;28.40;90.60;;;;;;5094038;28;20099;-71
2023/06/12 09:06:36;;;;;;;0.20;0.20;;;28.50;90.60;;;;;;5093494;28;20112;-70
2023/06/12 09:09:03;;;;;;;0.30;0.30;;;28.60;89.00;;;;;;5093876;28;20495;-71
2023/06/12 09:11:28;;;;;;;;;;;28.70;89.40;;;;;;5094523;28;20048;-71
2023/06/12 09:13:54;;;;;;;0.40;0.40;;;28.80;89.60;;;;;;5093992;28;20251;-71
2023/06/12 09:16:20;;;;;;;0.60;0.60;;;29.00;88.60;;;;;;5094623;28;20169;-71
2023/06/12 09:18:50;;;;;;;0.50;0.50;;;29.20;87.00;;;;;;5093838;28;20051;-71
2023/06/12 09:21:16;;;;;;;0.52;0.50;;;29.30;86.60;;;;;;5093675;28;20032;-72
2023/06/12 09:23:45;;;;;;;0.65;0.65;;;29.20;84.70;;;;;;5093794;28;20119;-71
2023/06/12 09:26:13;;;;;;;0.47;0.47;;;29.00;85.10;;;;;;5093908;28;20040;-71
2023/06/12 09:28:42;;;;;;;0.20;0.20;;;29.00;84.30;;;;;;5093951;28;20410;-71
2023/06/12 09:31:08;;;;;;;0.60;0.60;;;29.00;85.00;;;;;;5093823;28;20044;-71
2023/06/12 09:33:39;;;;;;;1.05;1.00;;;29.00;84.90;;;;;;5093793;28;20076;-71
2023/06/12 09:36:06;;;;;;;0.43;0.43;;;29.00;82.90;;;;;;5093839;28;20036;-71
2023/06/12 09:38:34;;;;;;;0.30;0.30;;;29.10;82.90;;;;;;5093697;28;20444;-71
2023/06/12 09:41:03;;;;;;;0.32;0.32;;;29.30;83.80;;;;;;5093610;28;20040;-71
2023/06/12 09:43:29;;;;;;;0.43;0.40;;;29.40;82.80;;;;;;5093634;28;20086;-70
2023/06/12 09:45:57;;;;;;;1.05;0.65;;;29.50;83.00;;;;;;5093305;28;20548;-71
2023/06/12 09:48:23;;;;;;;1.30;1.20;;;29.70;80.50;;;;;;5093456;28;20075;-71
2023/06/12 09:50:49;;;;;;;0.30;0.30;;;29.80;80.40;;;;;;5093306;28;20043;-71
2023/06/12 09:53:17;;;;;;;0.40;0.40;;;29.90;81.40;;;;;;5093319;28;20051;-72
2023/06/12 09:55:45;;;;;;;0.30;0.30;;;30.00;80.50;;;;;;5093497;28;20122;-71
2023/06/12 09:58:17;;;;;;;0.57;0.40;;;30.10;79.60;;;;;;5093460;28;20070;-70
2023/06/12 10:00:43;;;;;;;0.30;0.30;;;30.10;76.50;;;;;;5093788;28;20036;-71
2023/06/12 10:03:14;;;;;;;0.63;0.55;;;30.10;78.30;;;;;;5093473;28;20032;-71
2023/06/12 10:05:41;;;;;;;0.30;0.30;;;30.10;77.50;;;;;;5093103;28;20059;-73
2023/06/12 10:08:07;;;;;;;0.65;0.60;;;30.10;76.70;;;;;;5093493;28;20044;-72
2023/06/12 10:10:36;;;;;;;1.23;0.60;;;30.20;77.50;;;;;;5093361;28;20039;-72
2023/06/12 10:13:03;;;;;;;3.88;0.73;;;30.20;79.10;;;;;;5093478;28;20036;-71
2023/06/12 10:15:30;;;;;;;0.63;0.60;;;30.30;76.10;;;;;;5093334;28;20131;-71
2023/06/12 10:17:56;;;;;;;0.63;0.63;;;30.60;75.70;;;;;;5095900;28;20383;-72
2023/06/12 10:20:23;;;;;;;0.50;0.50;;;30.60;74.10;;;;;;5097247;28;20472;-71
2023/06/12 10:22:51;;;;;;;2.90;0.73;;;30.60;71.60;;;;;;5097195;28;20047;-71
2023/06/12 10:25:17;;;;;;;2.05;1.65;;;30.50;73.20;;;;;;5097183;28;20047;-71
2023/06/12 10:27:43;;;;;;;0.30;0.30;;;30.60;72.90;;;;;;5097331;28;20391;-71
2023/06/12 10:30:10;;;;;;;;;;;30.60;72.10;;;;;;5097190;28;20123;-71
2023/06/12 10:32:36;;;;;;;1.42;1.13;;;30.80;70.50;;;;;;5097509;28;19916;-71
2023/06/12 10:35:02;;;;;;;0.75;0.40;;;31.00;71.60;;;;;;5095726;28;20055;-71
2023/06/12 10:37:32;;;;;;;0.45;0.45;;;31.00;69.80;;;;;;5095715;28;20048;-71
2023/06/12 10:40:10;;;;;;;0.45;0.45;;;31.00;70.60;;;;;;5097198;28;20345;-71
2023/06/12 10:42:51;;;;;;;0.30;0.30;;;31.00;71.40;;;;;;5096788;28;20441;-71
2023/06/12 10:45:25;;;;;;;0.30;0.30;;;31.20;71.70;;;;;;5097241;28;20081;-71
2023/06/12 10:48:03;;;;;;;1.02;0.68;;;31.30;71.90;;;;;;5096783;28;20071;-71
2023/06/12 10:50:30;;;;;;;0.40;0.40;;;31.30;72.20;;;;;;5096871;28;20082;-71
2023/06/12 10:53:03;;;;;;;1.35;0.77;;;31.40;72.30;;;;;;5096647;28;20051;-71
2023/06/12 10:55:29;;;;;;;0.75;0.75;;;31.50;71.70;;;;;;5096411;28;20082;-72
2023/06/12 10:58:00;;;;;;;0.70;0.50;;;31.50;71.50;;;;;;5096881;28;20044;-71
2023/06/12 11:00:33;;;;;;;0.30;0.30;;;31.30;70.50;;;;;;5096505;28;20051;-71
2023/06/12 11:03:11;;;;;;;0.60;0.60;;;31.00;71.40;;;;;;5096406;28;20364;-71
2023/06/12 11:05:38;;;;;;;0.30;0.30;;;31.00;71.20;;;;;;5096553;28;20127;-71
2023/06/12 11:08:06;;;;;;;0.98;0.90;;;31.10;72.60;;;;;;5096097;28;20075;-71
2023/06/12 11:10:34;;;;;;;1.98;1.30;;;31.30;69.10;;;;;;5096391;28;20035;-72
2023/06/12 11:13:00;;;;;;;1.58;0.73;;;31.40;70.20;;;;;;5096261;28;20122;-72
2023/06/12 11:15:26;;;;;;;1.10;0.57;;;31.60;71.70;;;;;;5096138;28;20053;-72
2023/06/12 11:17:53;;;;;;;0.40;0.40;;;31.70;71.10;;;;;;5094978;28;20048;-72
2023/06/12 11:20:20;;;;;;;0.65;0.55;;;31.70;70.30;;;;;;5096142;28;20032;-72
2023/06/12 11:22:47;;;;;;;1.65;1.30;;;31.80;69.70;;;;;;5094778;28;20407;-72
2023/06/12 11:25:13;;;;;;;3.97;1.42;;;31.90;69.40;;;;;;5094833;28;20085;-71
2023/06/12 11:27:39;;;;;;;0.50;0.50;;;32.00;70.90;;;;;;5096016;28;20101;-71
2023/06/12 11:30:10;;;;;;;0.35;0.35;;;32.10;67.30;;;;;;5094500;28;20040;-72
2023/06/12 11:32:35;;;;;;;0.95;0.88;;;32.00;66.70;;;;;;5095587;28;20475;-71
2023/06/12 11:35:03;;;;;;;0.57;0.57;;;31.90;66.50;;;;;;5095814;28;20040;-71
2023/06/12 11:37:29;;;;;;;0.93;0.68;;;32.00;67.50;;;;;;5095776;28;20048;-72
2023/06/12 11:40:10;;;;;;;0.90;0.40;;;32.20;66.30;;;;;;5095797;28;20490;-71
2023/06/12 11:42:37;;;;;;;0.82;0.70;;;32.20;66.70;;;;;;5095985;28;20387;-71
2023/06/12 11:45:06;;;;;;;0.40;0.40;;;32.20;67.30;;;;;;5095627;28;20123;-71
2023/06/12 11:47:35;;;;;;;0.85;0.65;;;31.80;65.60;;;;;;5095499;28;20047;-71
2023/06/12 11:50:03;;;;;;;0.93;0.65;;;31.50;67.10;;;;;;5095572;28;20093;-72
2023/06/12 11:52:29;;;;;;;0.30;0.30;;;31.30;67.30;;;;;;5095679;28;20039;-72
2023/06/12 11:55:22;;;;;;;1.05;0.60;;;31.40;67.40;;;;;;5095468;28;20491;-72
2023/06/12 11:57:50;;;;;;;0.32;0.32;;;31.70;68.70;;;;;;5092175;28;20052;-71
2023/06/12 12:00:18;;;;;;;1.02;0.65;;;31.90;69.70;;;;;;5095335;28;20040;-71
2023/06/12 12:02:51;;;;;;;0.43;0.40;;;31.90;66.40;;;;;;5095312;28;20048;-71
2023/06/12 12:05:22;;;;;;;0.40;0.40;;;32.00;67.50;;;;;;5095187;28;20384;-71
2023/06/12 12:07:56;;;;;;;0.65;0.47;;;32.00;67.40;;;;;;5095463;28;20048;-71
2023/06/12 12:10:22;;;;;;;0.45;0.45;;;31.90;66.90;;;;;;5095318;28;20375;-73
2023/06/12 12:12:51;;;;;;;;;;;31.80;67.10;;;;;;5095448;28;20040;-71
2023/06/12 12:15:18;;;;;;;0.45;0.43;;;31.90;68.40;;;;;;5095004;28;20019;-72
2023/06/12 12:17:45;;;;;;;0.52;0.52;;;31.90;67.70;;;;;;5094998;28;20549;-71
2023/06/12 12:20:16;;;;;;;0.35;0.35;;;32.00;67.10;;;;;;5095018;28;20097;-72
2023/06/12 12:22:45;;;;;;;0.65;0.50;;;32.10;66.00;;;;;;5094884;28;20047;-71
2023/06/12 12:25:20;;;;;;;1.02;0.93;;;32.00;66.00;;;;;;5094533;28;20115;-71
2023/06/12 12:27:46;;;;;;;1.02;0.70;;;32.20;68.70;;;;;;5094881;28;20543;-72
2023/06/12 12:30:14;;;;;;;0.40;0.40;;;32.30;65.70;;;;;;5095080;28;20126;-71
2023/06/12 12:32:47;;;;;;;0.30;0.30;;;31.90;65.70;;;;;;5094718;28;20119;-72
2023/06/12 12:35:17;;;;;;;0.60;0.55;;;31.60;65.80;;;;;;5094917;28;20419;-72
2023/06/12 12:37:43;;;;;;;0.52;0.50;;;31.00;65.80;;;;;;5094590;28;20040;-71
2023/06/12 12:40:10;;;;;;;1.73;0.88;;;30.80;67.00;;;;;;5094268;28;20379;-71
2023/06/12 12:42:45;;;;;;;0.52;0.40;;;31.10;67.90;;;;;;5094552;28;20040;-71
2023/06/12 12:45:12;;;;;;;0.30;0.30;;;31.00;67.20;;;;;;5094476;28;20059;-71
2023/06/12 12:47:44;;;;;;;1.27;0.75;;;30.70;66.80;;;;;;5094451;28;20045;-71
2023/06/12 12:50:11;;;;;;;2.45;0.60;;;30.60;67.80;;;;;;5094628;28;20067;-71